Time;durP1;ratioP1;P1;durP2;ratioP2;P2;SDS_P1;SDS_P2;PMS_P1;PMS_P2;Temp;Humidity;BMP_temperature;BMP_pressure;BME280_temperature;BME280_humidity;BME280_pressure;Samples;Min_cycle;Max_cycle;Signal;HPM_P1;HPM_P2
2023/06/28 00:01:43;;;;;;;6.25;2.83;;;19.90;56.90;;;;;;4963468;28;20057;-74
2023/06/28 00:04:10;;;;;;;5.63;2.30;;;19.90;57.20;;;;;;4877479;28;20096;-72
2023/06/28 00:06:37;;;;;;;5.00;2.45;;;19.80;57.50;;;;;;4961967;28;20109;-73
2023/06/28 00:09:04;;;;;;;5.00;2.00;;;19.80;57.60;;;;;;4996896;28;20060;-72
2023/06/28 00:11:31;;;;;;;4.55;2.00;;;19.70;57.70;;;;;;5013758;28;20060;-71
2023/06/28 00:13:58;;;;;;;4.72;2.00;;;19.60;58.00;;;;;;5013332;28;20042;-71
2023/06/28 00:16:24;;;;;;;3.72;1.98;;;19.60;58.20;;;;;;5011637;28;20457;-71
2023/06/28 00:18:53;;;;;;;4.65;1.85;;;19.60;58.40;;;;;;5013810;28;20057;-71
2023/06/28 00:21:22;;;;;;;4.45;1.92;;;19.60;58.30;;;;;;5014210;28;20050;-75
2023/06/28 00:23:50;;;;;;;4.55;2.00;;;19.60;58.60;;;;;;5014799;28;20411;-73
2023/06/28 00:26:21;;;;;;;4.65;1.80;;;19.60;58.50;;;;;;5008124;28;20050;-74
2023/06/28 00:28:48;;;;;;;3.65;1.77;;;19.60;58.50;;;;;;5014282;28;20050;-73
2023/06/28 00:31:15;;;;;;;3.30;1.52;;;19.60;58.50;;;;;;5012877;28;20053;-72
2023/06/28 00:33:42;;;;;;;5.22;1.88;;;19.60;58.60;;;;;;5014606;28;20053;-73
2023/06/28 00:36:11;;;;;;;6.07;2.20;;;19.50;58.70;;;;;;5012156;28;20109;-72
2023/06/28 00:38:37;;;;;;;3.88;1.90;;;19.50;58.80;;;;;;5011820;28;20112;-72
2023/06/28 00:41:05;;;;;;;3.63;1.65;;;19.50;58.80;;;;;;5010546;28;20042;-72
2023/06/28 00:43:33;;;;;;;4.55;1.80;;;19.30;59.10;;;;;;4988470;28;20050;-73
2023/06/28 00:46:00;;;;;;;4.97;1.90;;;19.30;59.20;;;;;;4990148;28;20054;-72
2023/06/28 00:48:27;;;;;;;5.85;1.98;;;19.20;59.40;;;;;;5008901;28;20046;-73
2023/06/28 00:50:55;;;;;;;4.75;1.98;;;19.20;59.60;;;;;;5011965;28;20061;-72
2023/06/28 00:53:23;;;;;;;4.25;1.80;;;19.10;59.90;;;;;;4994049;28;20082;-73
2023/06/28 00:55:50;;;;;;;5.90;1.80;;;19.10;60.10;;;;;;5009077;28;20058;-73
2023/06/28 00:58:17;;;;;;;5.57;1.98;;;19.00;60.30;;;;;;5013608;28;20038;-73
2023/06/28 01:00:46;;;;;;;3.58;1.63;;;19.00;60.60;;;;;;4990275;28;20051;-73
2023/06/28 01:03:18;;;;;;;3.88;1.80;;;19.00;60.80;;;;;;4969125;28;20038;-72
2023/06/28 01:05:46;;;;;;;5.75;2.00;;;18.90;61.00;;;;;;4962212;28;20054;-72
2023/06/28 01:08:14;;;;;;;4.50;2.33;;;18.80;61.20;;;;;;4979178;28;20058;-72
2023/06/28 01:10:43;;;;;;;5.32;2.10;;;18.90;61.30;;;;;;4985147;28;20132;-72
2023/06/28 01:13:11;;;;;;;4.65;2.08;;;18.90;61.30;;;;;;4978053;28;20058;-72
2023/06/28 01:15:37;;;;;;;5.15;2.28;;;18.80;61.50;;;;;;4980230;28;20051;-72
2023/06/28 01:18:05;;;;;;;4.88;2.35;;;18.80;61.70;;;;;;4962143;28;20465;-73
2023/06/28 01:20:32;;;;;;;4.88;1.98;;;18.70;61.80;;;;;;4984890;28;20045;-73
2023/06/28 01:23:02;;;;;;;4.57;2.00;;;18.70;62.00;;;;;;5010200;28;20045;-72
2023/06/28 01:25:29;;;;;;;;;;;18.60;62.10;;;;;;4998979;28;20045;-73
2023/06/28 01:27:57;;;;;;;4.20;1.50;;;18.60;62.20;;;;;;4995626;28;20296;-72
2023/06/28 01:30:25;;;;;;;4.30;2.00;;;18.60;62.20;;;;;;5015401;28;20057;-72
2023/06/28 01:32:53;;;;;;;3.60;1.83;;;18.50;62.20;;;;;;4983228;28;20452;-73
2023/06/28 01:35:20;;;;;;;4.07;1.95;;;18.40;62.50;;;;;;5014333;28;20049;-73
2023/06/28 01:37:49;;;;;;;3.65;1.90;;;18.40;62.40;;;;;;4998303;28;20085;-73
2023/06/28 01:40:19;;;;;;;4.60;1.90;;;18.40;62.40;;;;;;4986979;28;20049;-74
2023/06/28 01:42:47;;;;;;;2.97;1.63;;;18.30;62.40;;;;;;5013268;28;20502;-72
2023/06/28 01:45:14;;;;;;;4.43;1.88;;;18.30;62.50;;;;;;5014033;28;20440;-73
2023/06/28 01:47:41;;;;;;;5.70;2.50;;;18.30;62.50;;;;;;4996531;28;20069;-72
2023/06/28 01:50:09;;;;;;;5.28;1.92;;;18.20;62.70;;;;;;5016521;28;20074;-73
2023/06/28 01:52:36;;;;;;;4.95;2.13;;;18.10;62.90;;;;;;5018254;28;20064;-73
2023/06/28 01:55:04;;;;;;;3.78;1.70;;;18.10;63.10;;;;;;5017714;28;20049;-72
2023/06/28 01:57:33;;;;;;;4.15;1.70;;;18.10;63.10;;;;;;5017986;28;20052;-74
2023/06/28 02:00:04;;;;;;;3.80;1.83;;;18.00;63.40;;;;;;5002216;28;20077;-74
2023/06/28 02:02:31;;;;;;;4.35;2.10;;;18.00;63.40;;;;;;5013623;28;20501;-72
2023/06/28 02:04:58;;;;;;;3.47;1.60;;;17.90;63.60;;;;;;5016631;28;20045;-74
2023/06/28 02:07:25;;;;;;;4.25;2.22;;;17.90;63.70;;;;;;5017347;28;20046;-74
2023/06/28 02:09:52;;;;;;;3.88;2.08;;;17.90;63.80;;;;;;5016510;28;20045;-73
2023/06/28 02:12:19;;;;;;;4.95;2.28;;;17.80;64.00;;;;;;4999460;28;20140;-74
2023/06/28 02:14:51;;;;;;;5.88;2.17;;;17.80;64.20;;;;;;5016238;28;20128;-73
2023/06/28 02:17:20;;;;;;;4.05;2.10;;;17.70;64.20;;;;;;4988343;28;20046;-74
2023/06/28 02:19:48;;;;;;;7.97;2.40;;;17.70;64.40;;;;;;4986944;28;20054;-73
2023/06/28 02:22:15;;;;;;;5.63;1.80;;;17.60;64.40;;;;;;4995944;28;20621;-75
2023/06/28 02:24:42;;;;;;;4.68;1.95;;;17.60;64.50;;;;;;4987307;28;20066;-74
2023/06/28 02:27:09;;;;;;;4.30;1.75;;;17.60;64.70;;;;;;4991996;28;20110;-75
2023/06/28 02:29:37;;;;;;;4.80;2.00;;;17.60;64.80;;;;;;5000931;28;20128;-73
2023/06/28 02:32:05;;;;;;;5.20;2.20;;;17.50;64.80;;;;;;5013755;28;20125;-74
2023/06/28 02:34:33;;;;;;;4.88;2.05;;;17.50;64.80;;;;;;5014851;28;20063;-72
2023/06/28 02:37:00;;;;;;;4.68;1.88;;;17.60;64.60;;;;;;5018011;28;20077;-72
2023/06/28 02:39:27;;;;;;;4.25;2.10;;;17.50;64.70;;;;;;5009819;28;20042;-72
2023/06/28 02:41:54;;;;;;;4.97;2.10;;;17.50;64.80;;;;;;5016679;28;20061;-71
2023/06/28 02:44:21;;;;;;;5.13;2.15;;;17.40;64.90;;;;;;5012524;28;20086;-72
2023/06/28 02:46:48;;;;;;;5.05;2.22;;;17.40;65.10;;;;;;4993861;28;20053;-72
2023/06/28 02:49:17;;;;;;;4.25;2.00;;;17.30;65.30;;;;;;5011300;28;20050;-72
2023/06/28 02:51:44;;;;;;;4.30;2.10;;;17.30;65.30;;;;;;4998021;28;20062;-72
2023/06/28 02:54:14;;;;;;;4.30;1.70;;;17.30;65.30;;;;;;4999876;28;20193;-73
2023/06/28 02:56:41;;;;;;;7.00;2.40;;;17.30;65.40;;;;;;4999657;28;20083;-73
2023/06/28 02:59:14;;;;;;;5.60;2.40;;;17.30;65.40;;;;;;5012958;28;20061;-73
2023/06/28 03:01:42;;;;;;;3.72;2.20;;;17.30;65.40;;;;;;4998048;28;20783;-73
2023/06/28 03:04:09;;;;;;;5.18;2.38;;;17.20;65.40;;;;;;5017615;28;20054;-73
2023/06/28 03:06:38;;;;;;;5.28;2.70;;;17.30;65.30;;;;;;4997929;28;20058;-73
2023/06/28 03:09:05;;;;;;;4.97;2.72;;;17.20;65.50;;;;;;5016079;28;20128;-73
2023/06/28 03:11:32;;;;;;;4.63;2.22;;;17.20;65.60;;;;;;4998004;28;20065;-73
2023/06/28 03:14:01;;;;;;;5.25;3.03;;;17.20;65.70;;;;;;4996588;28;20060;-73
2023/06/28 03:16:28;;;;;;;5.85;2.88;;;17.10;65.80;;;;;;4999646;28;20487;-74
2023/06/28 03:18:55;;;;;;;7.55;3.10;;;17.10;65.90;;;;;;5010660;28;20123;-73
2023/06/28 03:21:22;;;;;;;5.25;2.80;;;17.10;65.90;;;;;;4979290;28;20089;-74
2023/06/28 03:23:50;;;;;;;6.25;2.92;;;17.10;66.00;;;;;;4980381;28;20054;-74
2023/06/28 03:26:17;;;;;;;6.68;2.70;;;17.10;65.90;;;;;;4982257;28;20054;-73
2023/06/28 03:28:44;;;;;;;4.57;2.25;;;17.10;65.90;;;;;;4984522;28;20432;-74
2023/06/28 03:31:12;;;;;;;3.90;2.10;;;17.10;65.70;;;;;;5016389;28;20049;-71
2023/06/28 03:33:39;;;;;;;4.63;2.03;;;17.10;65.60;;;;;;5008168;28;20045;-73
2023/06/28 03:36:07;;;;;;;5.20;2.33;;;17.20;65.40;;;;;;4985607;28;20405;-74
2023/06/28 03:38:33;;;;;;;4.90;2.28;;;17.20;65.30;;;;;;5008232;28;20049;-73
2023/06/28 03:41:02;;;;;;;5.53;2.55;;;17.20;65.40;;;;;;4999123;28;20517;-73
2023/06/28 03:43:29;;;;;;;4.70;2.27;;;17.20;65.30;;;;;;4981366;28;20516;-73
2023/06/28 03:45:56;;;;;;;4.38;2.30;;;17.20;65.30;;;;;;4996969;28;20460;-73
2023/06/28 03:48:23;;;;;;;7.03;2.70;;;17.20;65.20;;;;;;5011293;28;20073;-74
2023/06/28 03:50:51;;;;;;;6.80;2.67;;;17.20;65.20;;;;;;5017615;28;20057;-72
2023/06/28 03:53:18;;;;;;;7.20;2.90;;;17.30;65.00;;;;;;5016964;28;20056;-71
2023/06/28 03:55:45;;;;;;;6.93;2.58;;;17.20;65.20;;;;;;5013607;28;20137;-72
2023/06/28 03:58:13;;;;;;;5.80;2.35;;;17.20;65.30;;;;;;5014994;28;20038;-72
2023/06/28 04:00:41;;;;;;;4.70;2.28;;;17.20;65.40;;;;;;5010727;28;20050;-72
2023/06/28 04:03:08;;;;;;;5.30;2.05;;;17.30;65.20;;;;;;5015543;28;20060;-71
2023/06/28 04:05:35;;;;;;;5.53;2.50;;;17.30;65.20;;;;;;5011087;28;20042;-71
2023/06/28 04:08:02;;;;;;;5.97;2.80;;;17.30;64.90;;;;;;5017254;28;20041;-72
2023/06/28 04:10:29;;;;;;;5.68;2.30;;;17.40;64.80;;;;;;5017844;28;20050;-70
2023/06/28 04:12:56;;;;;;;4.50;2.15;;;17.30;65.00;;;;;;5017285;28;20128;-70
2023/06/28 04:15:24;;;;;;;4.78;2.38;;;17.40;64.80;;;;;;5006464;28;20563;-71
2023/06/28 04:17:51;;;;;;;5.75;2.30;;;17.40;64.40;;;;;;5012783;28;20061;-72
2023/06/28 04:20:18;;;;;;;5.45;2.67;;;17.40;64.20;;;;;;5016673;28;20049;-71
2023/06/28 04:22:45;;;;;;;4.43;2.13;;;17.40;64.50;;;;;;5017725;28;20048;-71
2023/06/28 04:25:12;;;;;;;4.95;2.40;;;17.40;64.40;;;;;;5014044;28;20053;-70
2023/06/28 04:27:39;;;;;;;6.10;2.65;;;17.50;64.20;;;;;;5018189;28;20145;-69
2023/06/28 04:30:08;;;;;;;6.05;2.28;;;17.50;64.40;;;;;;5011694;28;21628;-71
2023/06/28 04:32:36;;;;;;;4.60;2.10;;;17.50;64.30;;;;;;5014948;28;20137;-70
2023/06/28 04:35:04;;;;;;;4.72;2.30;;;17.60;64.00;;;;;;5016089;28;20046;-70
2023/06/28 04:37:31;;;;;;;6.82;2.38;;;17.60;64.30;;;;;;5012729;28;20077;-71
2023/06/28 04:39:59;;;;;;;4.20;2.35;;;17.60;64.10;;;;;;5017070;28;20583;-71
2023/06/28 04:42:26;;;;;;;6.05;2.33;;;17.60;64.20;;;;;;5017621;28;20054;-70
2023/06/28 04:44:59;;;;;;;4.88;2.35;;;17.60;64.40;;;;;;5013502;28;20046;-70
2023/06/28 04:47:27;;;;;;;4.85;2.13;;;17.60;64.40;;;;;;5011229;28;20050;-70
2023/06/28 04:49:56;;;;;;;4.93;2.22;;;17.60;64.50;;;;;;5010124;28;20058;-71
2023/06/28 04:52:25;;;;;;;4.97;2.13;;;17.70;64.20;;;;;;5014376;28;20492;-70
2023/06/28 04:54:52;;;;;;;7.35;2.60;;;17.70;63.90;;;;;;5013108;28;20046;-71
2023/06/28 04:57:20;;;;;;;5.22;2.88;;;17.70;63.60;;;;;;5013757;28;20049;-72
2023/06/28 04:59:47;;;;;;;5.03;2.53;;;17.80;63.50;;;;;;5010617;28;20053;-71
2023/06/28 05:02:14;;;;;;;5.90;2.50;;;17.90;63.40;;;;;;5014240;28;20062;-72
2023/06/28 05:04:41;;;;;;;5.38;2.38;;;17.90;63.20;;;;;;5014647;28;20141;-71
2023/06/28 05:07:10;;;;;;;5.43;2.80;;;17.90;63.50;;;;;;5015695;28;20061;-71
2023/06/28 05:09:38;;;;;;;7.05;2.92;;;17.80;63.70;;;;;;5016030;28;20489;-70
2023/06/28 05:12:06;;;;;;;5.15;2.50;;;17.80;63.80;;;;;;5013198;28;20424;-71
2023/06/28 05:14:33;;;;;;;4.82;2.17;;;17.80;63.60;;;;;;5016760;28;20042;-69
2023/06/28 05:17:00;;;;;;;5.28;2.45;;;17.90;63.40;;;;;;4964336;28;20073;-72
2023/06/28 05:19:27;;;;;;;4.50;2.28;;;17.90;63.50;;;;;;4991928;28;20053;-71
2023/06/28 05:21:54;;;;;;;6.45;2.65;;;17.80;63.70;;;;;;4997560;28;20050;-67
2023/06/28 05:24:23;;;;;;;5.18;2.50;;;17.90;63.70;;;;;;5001581;28;20116;-71
2023/06/28 05:26:49;;;;;;;5.60;2.40;;;17.90;63.10;;;;;;5000309;28;20049;-70
2023/06/28 05:29:16;;;;;;;5.10;2.53;;;18.00;63.50;;;;;;4993000;28;20053;-70
2023/06/28 05:31:43;;;;;;;4.93;2.30;;;18.00;63.40;;;;;;4998305;28;20073;-69
2023/06/28 05:34:11;;;;;;;4.50;2.25;;;18.00;63.30;;;;;;4999211;28;20402;-71
2023/06/28 05:36:38;;;;;;;5.25;2.17;;;18.00;63.30;;;;;;4997737;28;20038;-71
2023/06/28 05:39:05;;;;;;;6.38;2.13;;;18.00;63.10;;;;;;4998332;28;20044;-69
2023/06/28 05:41:35;;;;;;;3.42;2.03;;;18.10;63.30;;;;;;5000163;28;20050;-70
2023/06/28 05:44:02;;;;;;;5.78;2.47;;;18.10;62.70;;;;;;4998957;28;20074;-70
2023/06/28 05:46:29;;;;;;;5.60;2.30;;;18.10;63.00;;;;;;4995800;28;20084;-69
2023/06/28 05:48:58;;;;;;;6.15;2.17;;;18.10;63.40;;;;;;4993173;28;20054;-70
2023/06/28 05:51:25;;;;;;;5.20;2.55;;;18.10;63.50;;;;;;5000561;28;20054;-70
2023/06/28 05:53:52;;;;;;;5.97;2.63;;;18.20;63.60;;;;;;5001713;28;20165;-70
2023/06/28 05:56:19;;;;;;;5.13;2.47;;;18.30;63.70;;;;;;5018805;28;20041;-70
2023/06/28 05:58:47;;;;;;;5.88;2.33;;;18.40;63.30;;;;;;5008894;28;20050;-70
2023/06/28 06:01:14;;;;;;;4.70;2.38;;;18.40;63.10;;;;;;5018359;28;20045;-69
2023/06/28 06:03:41;;;;;;;5.90;2.45;;;18.40;63.00;;;;;;5015506;28;20637;-70
2023/06/28 06:06:08;;;;;;;5.13;2.38;;;18.40;62.80;;;;;;5018893;28;20038;-71
2023/06/28 06:08:35;;;;;;;6.50;2.53;;;18.60;62.60;;;;;;5017769;28;20058;-70
2023/06/28 06:11:03;;;;;;;5.97;2.28;;;18.60;62.30;;;;;;5011070;28;20556;-70
2023/06/28 06:13:30;;;;;;;7.25;2.33;;;18.70;61.50;;;;;;5014608;28;20057;-69
2023/06/28 06:15:58;;;;;;;4.90;2.13;;;18.80;61.40;;;;;;5020389;28;20425;-70
2023/06/28 06:18:25;;;;;;;4.28;2.00;;;18.80;61.70;;;;;;5020346;28;20046;-70
2023/06/28 06:20:52;;;;;;;5.82;2.60;;;18.90;61.40;;;;;;5000146;28;20065;-69
2023/06/28 06:23:19;;;;;;;5.18;2.25;;;18.90;61.30;;;;;;5015932;28;20401;-70
2023/06/28 06:25:46;;;;;;;4.70;2.30;;;19.10;61.50;;;;;;5021481;28;20045;-69
2023/06/28 06:28:12;;;;;;;4.70;2.20;;;19.20;61.40;;;;;;5019513;28;20057;-70
2023/06/28 06:30:39;;;;;;;5.00;2.60;;;19.30;60.40;;;;;;5015706;28;20042;-70
2023/06/28 06:33:08;;;;;;;7.57;2.50;;;19.40;60.30;;;;;;5016062;28;20064;-69
2023/06/28 06:35:34;;;;;;;6.38;2.72;;;19.50;60.30;;;;;;5018147;28;20041;-70
2023/06/28 06:38:01;;;;;;;5.35;3.20;;;19.60;59.90;;;;;;5015568;28;20042;-70
2023/06/28 06:40:28;;;;;;;11.20;4.35;;;19.70;59.60;;;;;;5018793;28;20049;-70
2023/06/28 06:42:55;;;;;;;7.60;4.22;;;19.70;60.00;;;;;;5017545;28;20056;-69
2023/06/28 06:45:22;;;;;;;5.47;3.00;;;19.90;59.80;;;;;;5018650;28;20070;-71
2023/06/28 06:47:50;;;;;;;5.65;2.97;;;19.90;59.60;;;;;;5018326;28;20053;-70
2023/06/28 06:50:19;;;;;;;6.38;3.22;;;20.00;59.80;;;;;;5021240;28;20045;-69
2023/06/28 06:52:46;;;;;;;6.18;3.03;;;20.20;59.50;;;;;;5007168;28;20189;-70
2023/06/28 06:55:13;;;;;;;7.05;3.45;;;20.50;59.00;;;;;;5013726;28;20107;-70
2023/06/28 06:57:40;;;;;;;8.27;3.47;;;20.50;58.60;;;;;;5016355;28;20060;-70
2023/06/28 07:00:09;;;;;;;7.82;3.47;;;20.60;58.30;;;;;;5019375;28;20447;-70
2023/06/28 07:02:36;;;;;;;7.30;3.17;;;20.60;58.50;;;;;;5012165;28;20058;-69
2023/06/28 07:05:04;;;;;;;5.63;2.67;;;20.60;58.50;;;;;;5014860;28;20139;-70
2023/06/28 07:07:33;;;;;;;5.28;2.05;;;20.60;58.40;;;;;;5017750;28;20589;-70
2023/06/28 07:10:00;;;;;;;5.30;2.20;;;20.60;57.80;;;;;;5015115;28;20057;-71
2023/06/28 07:12:27;;;;;;;3.72;1.92;;;20.80;57.40;;;;;;5015765;28;20049;-70
2023/06/28 07:14:54;;;;;;;7.50;2.53;;;20.90;57.00;;;;;;5018021;28;20069;-69
2023/06/28 07:17:21;;;;;;;9.25;3.03;;;21.00;56.70;;;;;;5018894;28;20045;-69
2023/06/28 07:19:49;;;;;;;5.90;2.50;;;21.10;56.50;;;;;;5018505;28;20129;-71
2023/06/28 07:22:16;;;;;;;5.28;2.30;;;21.10;56.40;;;;;;5011051;28;20054;-70
2023/06/28 07:24:44;;;;;;;6.40;2.35;;;21.20;56.10;;;;;;5019232;28;20053;-70
2023/06/28 07:27:11;;;;;;;6.05;2.40;;;21.30;55.70;;;;;;5018740;28;20042;-71
2023/06/28 07:29:38;;;;;;;5.57;2.17;;;21.40;55.70;;;;;;5016207;28;20051;-70
2023/06/28 07:32:06;;;;;;;5.82;2.75;;;21.50;55.10;;;;;;5017742;28;20468;-71
2023/06/28 07:34:33;;;;;;;6.05;2.85;;;21.60;55.00;;;;;;5009218;28;20528;-71
2023/06/28 07:37:01;;;;;;;10.27;5.78;;;21.50;55.00;;;;;;5016277;28;20489;-70
2023/06/28 07:39:30;;;;;;;9.35;5.40;;;21.50;54.50;;;;;;5014979;28;20076;-71
2023/06/28 07:41:58;;;;;;;8.45;3.92;;;21.60;54.20;;;;;;5012518;28;20156;-71
2023/06/28 07:44:26;;;;;;;6.72;3.78;;;21.60;54.10;;;;;;5016631;28;20107;-69
2023/06/28 07:46:53;;;;;;;8.30;3.88;;;21.60;54.00;;;;;;5016135;28;20136;-70
2023/06/28 07:49:19;;;;;;;7.50;3.67;;;21.70;53.70;;;;;;5007073;28;20075;-71
2023/06/28 07:51:47;;;;;;;5.53;2.88;;;21.80;53.80;;;;;;5018438;28;20092;-71
2023/06/28 07:54:14;;;;;;;5.63;2.42;;;21.80;53.50;;;;;;5016629;28;20057;-71
2023/06/28 07:56:40;;;;;;;5.72;2.70;;;21.70;53.30;;;;;;5014472;28;20104;-68
2023/06/28 07:59:09;;;;;;;6.35;2.88;;;21.80;53.30;;;;;;5019963;28;20038;-71
2023/06/28 08:01:36;;;;;;;6.35;2.63;;;21.90;53.40;;;;;;5016624;28;20046;-71
2023/06/28 08:04:03;;;;;;;8.88;3.80;;;21.90;53.70;;;;;;5016929;28;20058;-68
2023/06/28 08:06:30;;;;;;;6.10;3.10;;;21.80;53.00;;;;;;5016930;28;20060;-71
2023/06/28 08:08:56;;;;;;;6.85;3.33;;;21.90;52.90;;;;;;5019164;28;20060;-70
2023/06/28 08:11:23;;;;;;;7.90;2.40;;;21.90;52.80;;;;;;5014814;28;20564;-70
2023/06/28 08:13:51;;;;;;;6.60;2.63;;;21.90;52.70;;;;;;5017840;28;20480;-71
2023/06/28 08:16:19;;;;;;;5.93;2.50;;;22.00;52.40;;;;;;5018050;28;20049;-70
2023/06/28 08:18:47;;;;;;;7.78;3.35;;;22.10;52.30;;;;;;5018846;28;20053;-69
2023/06/28 08:21:14;;;;;;;10.32;4.85;;;22.10;52.10;;;;;;5016398;28;20501;-70
2023/06/28 08:23:41;;;;;;;10.05;6.57;;;22.30;51.90;;;;;;5019965;28;20497;-71
2023/06/28 08:26:08;;;;;;;9.63;6.07;;;22.40;51.30;;;;;;5017326;28;20405;-70
2023/06/28 08:28:35;;;;;;;6.78;3.75;;;22.50;50.90;;;;;;5016180;28;20042;-71
2023/06/28 08:31:02;;;;;;;8.75;4.90;;;22.50;50.50;;;;;;5015381;28;20053;-71
2023/06/28 08:33:30;;;;;;;6.25;3.55;;;22.40;50.90;;;;;;5018530;28;20049;-70
2023/06/28 08:35:57;;;;;;;7.25;3.00;;;22.30;50.70;;;;;;5016216;28;20061;-70
2023/06/28 08:38:24;;;;;;;6.15;2.35;;;22.30;50.80;;;;;;5015602;28;20406;-71
2023/06/28 08:40:52;;;;;;;6.47;2.17;;;22.20;50.60;;;;;;5019285;28;20049;-71
2023/06/28 08:43:21;;;;;;;3.88;1.70;;;22.20;50.80;;;;;;5016799;28;20041;-69
2023/06/28 08:45:48;;;;;;;4.33;1.47;;;22.20;51.00;;;;;;5015481;28;20052;-70
2023/06/28 08:48:15;;;;;;;3.88;1.60;;;22.30;51.00;;;;;;5015686;28;20045;-69
2023/06/28 08:50:45;;;;;;;5.82;1.88;;;22.40;51.00;;;;;;5018647;28;20050;-69
2023/06/28 08:53:18;;;;;;;5.70;1.83;;;22.40;51.10;;;;;;5015885;28;20121;-69
2023/06/28 08:55:47;;;;;;;4.97;1.65;;;22.40;51.10;;;;;;5011286;28;20049;-71
2023/06/28 08:58:14;;;;;;;3.22;1.15;;;22.30;51.20;;;;;;5014674;28;20277;-70
2023/06/28 09:00:44;;;;;;;4.68;1.70;;;22.30;51.50;;;;;;5018304;28;20144;-70
2023/06/28 09:03:11;;;;;;;;;;;22.10;51.80;;;;;;5014021;28;20076;-71
2023/06/28 09:05:39;;;;;;;6.15;2.10;;;22.20;51.80;;;;;;5017155;28;19925;-70
2023/06/28 09:08:09;;;;;;;3.50;1.52;;;22.20;51.80;;;;;;5018319;28;20049;-70
2023/06/28 09:10:37;;;;;;;4.10;1.58;;;22.20;51.80;;;;;;5011923;28;20045;-70
2023/06/28 09:13:05;;;;;;;4.63;1.48;;;22.20;52.10;;;;;;5013545;28;20049;-70
2023/06/28 09:15:35;;;;;;;4.03;1.65;;;22.20;52.30;;;;;;5017870;28;20049;-69
2023/06/28 09:18:02;;;;;;;4.07;1.48;;;22.30;52.30;;;;;;5013151;28;20412;-70
2023/06/28 09:20:29;;;;;;;4.85;1.50;;;22.30;52.00;;;;;;5017545;28;20056;-69
2023/06/28 09:22:56;;;;;;;3.72;1.40;;;22.40;51.90;;;;;;5016779;28;20058;-71
2023/06/28 09:25:30;;;;;;;2.47;1.27;;;22.50;51.70;;;;;;5017031;28;20092;-70
2023/06/28 09:27:58;;;;;;;4.78;1.73;;;22.50;51.80;;;;;;5017873;28;20532;-71
2023/06/28 09:30:44;;;;;;;7.55;1.80;;;22.60;51.80;;;;;;5017232;28;20060;-71
2023/06/28 09:33:11;;;;;;;3.72;1.35;;;22.70;51.80;;;;;;5016912;28;20037;-69
2023/06/28 09:35:38;;;;;;;3.30;1.25;;;22.90;51.70;;;;;;5015074;28;20109;-70
2023/06/28 09:38:09;;;;;;;3.92;1.48;;;23.00;51.60;;;;;;5018202;28;20456;-70
2023/06/28 09:40:37;;;;;;;2.80;1.33;;;23.10;51.40;;;;;;5015869;28;20053;-70
2023/06/28 09:43:04;;;;;;;4.43;1.60;;;23.10;51.30;;;;;;5016779;28;20075;-70
2023/06/28 09:45:33;;;;;;;5.90;1.50;;;23.20;51.10;;;;;;5017439;28;20135;-70
2023/06/28 09:48:01;;;;;;;2.88;1.33;;;23.30;50.90;;;;;;5013727;28;20136;-69
2023/06/28 09:50:38;;;;;;;4.75;1.90;;;23.60;51.00;;;;;;5017713;28;20049;-69
2023/06/28 09:53:09;;;;;;;3.25;1.35;;;23.70;50.80;;;;;;5015585;28;20045;-70
2023/06/28 09:55:40;;;;;;;4.57;1.70;;;23.80;50.20;;;;;;5015302;28;20050;-70
2023/06/28 09:58:10;;;;;;;2.83;1.58;;;23.90;49.90;;;;;;5016706;28;20050;-70
2023/06/28 10:00:38;;;;;;;6.47;1.85;;;24.00;49.50;;;;;;5015902;28;20464;-70
2023/06/28 10:03:08;;;;;;;5.35;1.88;;;24.00;48.60;;;;;;5013860;28;20049;-70
2023/06/28 10:05:36;;;;;;;3.55;1.42;;;24.00;48.10;;;;;;5016568;28;20057;-68
2023/06/28 10:08:07;;;;;;;6.43;1.65;;;24.10;47.40;;;;;;5020653;28;20071;-70
2023/06/28 10:10:35;;;;;;;3.75;1.60;;;24.20;45.40;;;;;;5019979;28;20056;-70
2023/06/28 10:13:06;;;;;;;3.13;1.15;;;24.30;44.90;;;;;;5018146;28;20045;-69
2023/06/28 10:15:42;;;;;;;3.72;1.30;;;24.60;45.00;;;;;;5021280;28;20054;-70
2023/06/28 10:18:09;;;;;;;4.28;1.60;;;24.70;44.60;;;;;;5019725;28;20482;-70
2023/06/28 10:20:38;;;;;;;1.48;0.73;;;24.90;43.30;;;;;;5016963;28;20046;-70
2023/06/28 10:23:07;;;;;;;3.00;1.40;;;25.10;41.90;;;;;;5020226;28;20476;-70
2023/06/28 10:25:35;;;;;;;1.98;1.10;;;25.30;40.30;;;;;;5020841;28;20073;-69
2023/06/28 10:28:04;;;;;;;3.43;1.97;;;25.50;40.80;;;;;;5018771;28;20049;-70
2023/06/28 10:30:32;;;;;;;6.75;3.90;;;25.50;42.00;;;;;;5015331;28;20045;-70
2023/06/28 10:33:00;;;;;;;6.50;3.10;;;25.50;42.30;;;;;;5019264;28;20042;-70
2023/06/28 10:35:28;;;;;;;5.95;2.33;;;25.70;42.40;;;;;;5017277;28;20056;-70
2023/06/28 10:37:58;;;;;;;4.53;2.25;;;25.70;42.50;;;;;;5019411;28;20432;-70
2023/06/28 10:40:25;;;;;;;3.47;1.85;;;26.00;42.20;;;;;;5019950;28;20077;-68
2023/06/28 10:42:52;;;;;;;5.82;2.22;;;26.10;42.60;;;;;;5019082;28;20049;-69
2023/06/28 10:45:33;;;;;;;4.90;2.10;;;26.10;42.60;;;;;;5019728;28;20037;-71
2023/06/28 10:48:00;;;;;;;4.30;2.03;;;26.00;41.90;;;;;;5016864;28;20050;-70
2023/06/28 10:50:28;;;;;;;5.47;1.92;;;26.10;41.80;;;;;;5018474;28;20060;-69
2023/06/28 10:52:56;;;;;;;5.38;1.88;;;26.10;41.70;;;;;;5020260;28;20057;-68
2023/06/28 10:55:30;;;;;;;4.38;1.77;;;25.90;41.20;;;;;;5015461;28;20100;-69
2023/06/28 10:58:05;;;;;;;4.20;1.80;;;25.70;41.20;;;;;;5019215;28;20057;-70
2023/06/28 11:00:44;;;;;;;3.90;1.90;;;25.60;41.60;;;;;;5018973;28;20444;-71
2023/06/28 11:03:11;;;;;;;4.00;1.65;;;25.60;41.90;;;;;;5018508;28;20120;-68
2023/06/28 11:05:40;;;;;;;4.47;1.70;;;25.60;41.60;;;;;;5018735;28;20042;-70
2023/06/28 11:08:11;;;;;;;4.03;1.42;;;25.80;41.40;;;;;;5018864;28;20065;-71
2023/06/28 11:10:40;;;;;;;5.05;1.70;;;25.90;41.40;;;;;;5018652;28;20071;-69
2023/06/28 11:13:09;;;;;;;2.78;1.27;;;25.80;42.10;;;;;;5017598;28;20053;-69
2023/06/28 11:15:37;;;;;;;3.38;1.63;;;25.70;42.40;;;;;;5013750;28;20050;-70
2023/06/28 11:18:10;;;;;;;3.88;1.45;;;25.70;43.00;;;;;;5017280;28;20115;-69
2023/06/28 11:20:52;;;;;;;5.15;1.67;;;25.60;42.60;;;;;;5019595;28;20542;-68
2023/06/28 11:23:29;;;;;;;4.18;1.50;;;25.50;43.00;;;;;;5018728;28;20042;-69
2023/06/28 11:26:03;;;;;;;4.40;1.88;;;25.40;42.80;;;;;;5017435;28;20517;-70
2023/06/28 11:28:32;;;;;;;4.05;2.10;;;25.30;43.20;;;;;;5015749;28;20041;-69
2023/06/28 11:31:13;;;;;;;4.80;2.13;;;25.20;43.30;;;;;;5017692;28;20053;-69
2023/06/28 11:33:43;;;;;;;3.85;1.60;;;25.30;43.70;;;;;;5016344;28;20480;-69
2023/06/28 11:36:11;;;;;;;6.25;1.88;;;25.40;43.80;;;;;;5018704;28;20060;-70
2023/06/28 11:38:41;;;;;;;3.13;1.63;;;25.70;43.20;;;;;;5016624;28;20096;-69
2023/06/28 11:41:08;;;;;;;2.72;1.63;;;26.10;42.70;;;;;;5018989;28;20045;-70
2023/06/28 11:43:34;;;;;;;4.05;1.70;;;26.40;42.50;;;;;;5016791;28;20049;-69
2023/06/28 11:46:01;;;;;;;5.65;2.90;;;26.50;42.70;;;;;;5017319;28;20045;-69
2023/06/28 11:48:28;;;;;;;8.60;5.88;;;26.30;42.50;;;;;;5019570;28;20042;-69
2023/06/28 11:51:00;;;;;;;13.98;10.13;;;26.30;42.30;;;;;;5018592;28;20420;-69
2023/06/28 11:53:29;;;;;;;17.50;13.23;;;26.50;42.10;;;;;;5019908;28;20413;-70
2023/06/28 11:55:57;;;;;;;11.90;9.43;;;26.80;42.10;;;;;;5017798;28;20064;-70
2023/06/28 11:58:32;;;;;;;10.30;7.70;;;26.60;42.00;;;;;;5016826;28;20509;-70
2023/06/28 12:01:00;;;;;;;9.00;5.85;;;26.60;42.10;;;;;;5018931;28;20050;-69
2023/06/28 12:03:34;;;;;;;12.00;8.98;;;26.80;41.90;;;;;;5013580;28;20050;-70
2023/06/28 12:06:04;;;;;;;16.55;12.25;;;26.80;41.80;;;;;;5016629;28;20053;-70
2023/06/28 12:08:35;;;;;;;11.27;7.70;;;26.80;41.50;;;;;;5019605;28;20160;-70
2023/06/28 12:11:08;;;;;;;12.02;8.93;;;26.80;41.30;;;;;;5017495;28;20041;-70
2023/06/28 12:13:35;;;;;;;10.13;7.15;;;26.90;41.70;;;;;;5015531;28;20562;-70
2023/06/28 12:16:12;;;;;;;10.85;5.72;;;26.70;41.80;;;;;;5016903;28;20125;-69
2023/06/28 12:18:56;;;;;;;7.35;4.22;;;26.90;41.60;;;;;;5018824;28;20133;-70
2023/06/28 12:21:24;;;;;;;5.75;3.45;;;27.10;41.40;;;;;;5018146;28;20042;-70
2023/06/28 12:23:52;;;;;;;8.00;4.70;;;27.30;41.20;;;;;;5010048;28;20055;-70
2023/06/28 12:26:22;;;;;;;8.48;4.57;;;27.40;41.10;;;;;;5017116;28;20428;-70
2023/06/28 12:28:49;;;;;;;6.78;4.63;;;27.50;41.20;;;;;;5018420;28;20053;-70
2023/06/28 12:31:17;;;;;;;6.78;3.70;;;27.60;41.30;;;;;;5012722;28;20065;-70
2023/06/28 12:33:52;;;;;;;7.97;3.05;;;27.60;41.10;;;;;;5016150;28;20049;-69
2023/06/28 12:36:19;;;;;;;4.28;2.58;;;27.60;40.40;;;;;;5018323;28;20050;-68
2023/06/28 12:38:50;;;;;;;5.18;3.30;;;27.60;40.90;;;;;;5016408;28;20056;-69
2023/06/28 12:41:17;;;;;;;6.38;3.55;;;27.60;41.00;;;;;;5016696;28;20046;-70
2023/06/28 12:43:56;;;;;;;4.80;3.13;;;27.60;40.50;;;;;;5018521;28;20052;-70
2023/06/28 12:46:23;;;;;;;5.75;3.10;;;27.60;40.90;;;;;;5017761;28;20570;-70
2023/06/28 12:48:52;;;;;;;4.63;2.75;;;27.60;40.80;;;;;;5015185;28;20064;-72
2023/06/28 12:51:19;;;;;;;6.35;3.10;;;27.50;40.50;;;;;;5018210;28;20056;-69
2023/06/28 12:53:45;;;;;;;4.25;2.50;;;27.30;40.70;;;;;;5016969;28;20050;-69